createdAt,value
2022-08-05T00:00:12.758Z,0
2022-08-05T00:01:30.870Z,0
2022-08-05T00:02:15.625Z,0
2022-08-05T00:03:19.160Z,0
2022-08-05T00:04:11.676Z,0
2022-08-05T00:06:29.205Z,0
2022-08-05T00:06:35.926Z,23.15
2022-08-05T00:08:05.611Z,7
2022-08-05T00:08:38.801Z,0
2022-08-05T00:09:20.226Z,7
2022-08-05T00:10:12.549Z,7
2022-08-05T00:11:30.341Z,0
2022-08-05T00:12:16.451Z,0
2022-08-05T00:13:21.641Z,0
2022-08-05T00:16:00.262Z,0
2022-08-05T00:16:12.502Z,0
2022-08-05T00:17:31.972Z,23.06
2022-08-05T00:18:10.539Z,23.06
2022-08-05T00:19:11.493Z,23.02
2022-08-05T00:20:10.694Z,23.02
2022-08-05T00:21:11.687Z,16
2022-08-05T00:22:14.811Z,0
2022-08-05T00:23:17.420Z,22.99
2022-08-05T00:24:16.235Z,18
2022-08-05T00:25:16.422Z,0
2022-08-05T00:26:11.809Z,18
2022-08-05T00:27:20.925Z,22.93
2022-08-05T00:28:16.401Z,22.93
2022-08-05T00:29:11.842Z,22.91
2022-08-05T00:30:15.500Z,22.90
2022-08-05T00:31:11.671Z,22.86
2022-08-05T00:32:18.884Z,22.81
2022-08-05T00:35:05.103Z,22.68
2022-08-05T00:35:10.984Z,22.68
2022-08-05T00:35:13.709Z,22.68
2022-08-05T00:37:17.287Z,22.62
2022-08-05T00:37:19.271Z,22.62
2022-08-05T00:38:13.315Z,22.61
2022-08-05T00:39:17.891Z,22.57
2022-08-05T00:40:13.397Z,22.54
2022-08-05T00:41:16.060Z,22.50
2022-08-05T00:42:12.598Z,22.50
2022-08-05T00:43:11.713Z,22.53
2022-08-05T00:44:12.222Z,22.57
2022-08-05T00:45:17.804Z,22.60
2022-08-05T00:46:11.540Z,13
2022-08-05T00:47:16.445Z,7
2022-08-05T00:48:11.785Z,7
2022-08-05T00:49:17.976Z,18
2022-08-05T00:50:11.930Z,0
2022-08-05T00:51:55.192Z,0
2022-08-05T00:52:12.066Z,0
2022-08-05T00:54:02.201Z,11
2022-08-05T00:54:15.245Z,11
2022-08-05T00:55:11.656Z,0
2022-08-05T00:56:12.392Z,0
2022-08-05T00:57:11.971Z,7
2022-08-05T00:58:15.073Z,22.44
2022-08-05T00:59:12.117Z,22.42
2022-08-05T01:00:19.885Z,22.41
2022-08-05T01:01:13.799Z,22.40
2022-08-05T01:02:12.601Z,14
2022-08-05T01:03:22.284Z,22.38
2022-08-05T01:04:19.970Z,22.36
2022-08-05T01:05:13.970Z,22.33
2022-08-05T01:07:17.858Z,7
2022-08-05T01:08:47.567Z,0
2022-08-05T01:09:11.310Z,0
2022-08-05T01:10:12.876Z,7
2022-08-05T01:11:11.845Z,22.22
2022-08-05T01:12:22.458Z,22.22
2022-08-05T01:13:27.265Z,22.24
2022-08-05T01:14:15.317Z,22.24
2022-08-05T01:15:40.514Z,0
2022-08-05T01:16:11.943Z,0
2022-08-05T01:17:11.710Z,0
2022-08-05T01:18:15.403Z,0
2022-08-05T01:19:12.012Z,0
2022-08-05T01:20:11.695Z,0
2022-08-05T01:21:22.712Z,0
2022-08-05T01:22:15.495Z,0
2022-08-05T01:23:34.851Z,0
2022-08-05T01:24:18.107Z,0
2022-08-05T01:25:11.558Z,14
2022-08-05T01:26:13.565Z,22.13
2022-08-05T01:27:22.875Z,22.09
2022-08-05T01:28:12.527Z,22.09
2022-08-05T01:29:11.882Z,22.10
2022-08-05T01:30:33.559Z,22.11
2022-08-05T01:31:11.619Z,22.11
2022-08-05T01:32:21.691Z,22.06
2022-08-05T01:33:12.411Z,22.06
2022-08-05T01:34:11.898Z,22.05
2022-08-05T01:35:51.596Z,22.05
2022-08-05T01:36:16.673Z,22.05
2022-08-05T01:37:17.989Z,22.01
2022-08-05T01:39:13.194Z,21.94
2022-08-05T01:40:11.080Z,21.95
2022-08-05T01:41:10.186Z,21.96
2022-08-05T01:42:13.815Z,21.97
2022-08-05T01:43:25.789Z,21.93
2022-08-05T01:44:13.639Z,21.93
2022-08-05T01:45:11.835Z,21.91
2022-08-05T01:46:46.263Z,21.94
2022-08-05T01:47:13.003Z,21.94
2022-08-05T01:48:14.330Z,21.95
2022-08-05T01:49:42.735Z,21.89
2022-08-05T01:51:16.682Z,21.89
2022-08-05T01:52:21.228Z,21.87
2022-08-05T01:53:11.241Z,21.87
2022-08-05T01:54:13.274Z,13
2022-08-05T01:55:12.167Z,12
2022-08-05T01:56:12.466Z,4
2022-08-05T01:58:40.453Z,0
2022-08-05T01:59:11.564Z,0
2022-08-05T02:00:15.855Z,0
2022-08-05T02:01:12.637Z,0
2022-08-05T02:02:14.064Z,0
2022-08-05T02:03:31.406Z,0
2022-08-05T02:04:10.762Z,0
2022-08-05T02:05:15.566Z,0
2022-08-05T02:06:41.971Z,0
2022-08-05T02:07:10.599Z,0
2022-08-05T02:08:11.379Z,4
2022-08-05T02:09:10.947Z,0
2022-08-05T02:10:17.325Z,18
2022-08-05T02:11:15.095Z,9
2022-08-05T02:12:13.734Z,0
2022-08-05T02:13:19.990Z,21.61
2022-08-05T02:14:17.051Z,21.61
2022-08-05T02:15:15.675Z,21.61
2022-08-05T02:17:29.675Z,21.62
2022-08-05T02:18:37.989Z,21.59
2022-08-05T02:19:10.739Z,21.59
2022-08-05T02:20:10.887Z,21.60
2022-08-05T02:21:18.557Z,14
2022-08-05T02:22:10.692Z,14
2022-08-05T02:23:12.105Z,0
2022-08-05T02:24:10.485Z,0
2022-08-05T02:25:12.611Z,0
2022-08-05T02:26:13.926Z,7
2022-08-05T02:27:59.348Z,0
2022-08-05T02:28:12.365Z,0
2022-08-05T02:29:26.179Z,3
2022-08-05T02:30:11.659Z,3
2022-08-05T02:31:21.092Z,21.42
2022-08-05T02:32:11.407Z,21.42
2022-08-05T02:33:10.616Z,21.41
2022-08-05T02:34:13.345Z,0
2022-08-05T02:35:22.059Z,10
2022-08-05T02:36:13.771Z,3
2022-08-05T02:37:10.827Z,0
2022-08-05T02:38:13.394Z,0
2022-08-05T02:39:12.370Z,0
2022-08-05T02:40:14.009Z,0
2022-08-05T02:41:21.526Z,0
2022-08-05T02:42:26.129Z,0
2022-08-05T02:43:11.188Z,7
2022-08-05T02:44:17.182Z,21.32
2022-08-05T02:45:13.813Z,21.32
2022-08-05T02:47:11.004Z,3
2022-08-05T02:48:16.545Z,0
2022-08-05T02:49:15.113Z,17
2022-08-05T02:50:18.114Z,21.29
2022-08-05T02:51:11.926Z,17
2022-08-05T02:52:13.626Z,3
2022-08-05T02:53:18.669Z,7
2022-08-05T02:54:11.657Z,0
2022-08-05T02:55:17.521Z,0
2022-08-05T02:56:10.977Z,0
2022-08-05T02:58:17.144Z,0
2022-08-05T02:58:17.471Z,0
2022-08-05T02:59:10.151Z,3
2022-08-05T03:00:12.738Z,21.19
2022-08-05T03:01:14.817Z,21.16
2022-08-05T03:02:10.734Z,21.15
2022-08-05T03:03:13.674Z,21.14
2022-08-05T03:05:11.087Z,21.14
2022-08-05T03:07:02.352Z,21.16
2022-08-05T03:07:40.587Z,21.17
2022-08-05T03:08:13.370Z,21.17
2022-08-05T03:09:11.437Z,21.16
2022-08-05T03:10:10.757Z,21.16
2022-08-05T03:12:00.000Z,21.14
2022-08-05T03:12:11.265Z,21.14
2022-08-05T03:13:10.258Z,21.14
2022-08-05T03:14:13.611Z,21.14
2022-08-05T03:15:12.984Z,21.13
2022-08-05T03:16:12.691Z,21.13
2022-08-05T03:17:12.494Z,21.09
2022-08-05T03:18:11.326Z,21.10
2022-08-05T03:19:33.165Z,21.08
2022-08-05T03:20:13.821Z,21.08
2022-08-05T03:21:10.311Z,21.03
2022-08-05T03:23:10.563Z,21.05
2022-08-05T03:24:11.959Z,21.07
2022-08-05T03:26:04.267Z,21.05
2022-08-05T03:26:35.736Z,21.04
2022-08-05T03:27:10.881Z,21.04
2022-08-05T03:28:11.576Z,21.02
2022-08-05T03:29:17.306Z,20.99
2022-08-05T03:30:12.669Z,20.96
2022-08-05T03:31:10.934Z,20.97
2022-08-05T03:32:12.161Z,20.97
2022-08-05T03:33:11.024Z,20.98
2022-08-05T03:34:13.836Z,20.99
2022-08-05T03:35:12.848Z,20.98
2022-08-05T03:36:15.436Z,20.95
2022-08-05T03:37:10.489Z,20.93
2022-08-05T03:38:11.208Z,20.93
2022-08-05T03:39:13.111Z,20.93
2022-08-05T03:40:31.286Z,20.93
2022-08-05T03:41:14.650Z,20.92
2022-08-05T03:42:10.632Z,20.89
2022-08-05T03:44:19.698Z,20.88
2022-08-05T03:44:20.084Z,20.88
2022-08-05T03:45:27.064Z,20.82
2022-08-05T03:46:11.598Z,20.82
2022-08-05T03:47:10.713Z,20.84
2022-08-05T03:48:11.518Z,20.87
2022-08-05T03:49:11.410Z,20.88
2022-08-05T03:50:13.561Z,20.90
2022-08-05T03:56:00.689Z,20.83
2022-08-05T03:56:03.758Z,20.83
2022-08-05T03:56:17.329Z,20.83
2022-08-05T03:56:18.047Z,20.83
2022-08-05T03:56:27.878Z,20.83
2022-08-05T03:56:35.401Z,20.83
2022-08-05T03:57:46.120Z,20.83
2022-08-05T03:58:13.465Z,20.83
2022-08-05T03:59:11.883Z,20.80
2022-08-05T04:00:15.817Z,20.76
2022-08-05T04:01:12.858Z,20.74
2022-08-05T04:02:58.754Z,17
2022-08-05T04:03:28.377Z,17
2022-08-05T04:04:13.806Z,20.71
2022-08-05T04:05:13.553Z,20.73
2022-08-05T04:06:12.319Z,20.73
2022-08-05T04:07:10.725Z,20.73
2022-08-05T04:08:35.997Z,20.68
2022-08-05T04:09:11.275Z,20.68
2022-08-05T04:10:10.922Z,20.68
2022-08-05T04:11:12.426Z,20.69
2022-08-05T04:12:28.082Z,20.73
2022-08-05T04:13:10.710Z,20.73
2022-08-05T04:14:11.033Z,20.77
2022-08-05T04:15:15.514Z,20.77
2022-08-05T04:16:11.181Z,20.76
2022-08-05T04:17:11.370Z,20.77
2022-08-05T04:18:22.333Z,20.75
2022-08-05T04:19:13.933Z,20.76
2022-08-05T04:20:14.379Z,20.72
2022-08-05T04:21:19.930Z,20.69
2022-08-05T04:22:15.534Z,20.67
2022-08-05T04:23:16.334Z,20.64
2022-08-05T04:24:18.706Z,20.63
2022-08-05T04:25:14.486Z,20.62
2022-08-05T04:26:11.286Z,20.63
2022-08-05T04:27:11.514Z,20.61
2022-08-05T04:28:17.269Z,17
2022-08-05T04:29:11.228Z,20.61
2022-08-05T04:30:12.841Z,20.62
2022-08-05T04:31:15.985Z,20.61
2022-08-05T04:32:11.310Z,20.60
2022-08-05T04:33:11.257Z,20.59
2022-08-05T04:34:42.908Z,20.62
2022-08-05T04:35:23.315Z,20.60
2022-08-05T04:36:45.768Z,20.59
2022-08-05T04:37:10.998Z,20.59
2022-08-05T04:38:11.004Z,20.59
2022-08-05T04:39:11.427Z,20.60
2022-08-05T04:40:11.539Z,20.61
2022-08-05T04:41:13.551Z,20.60
2022-08-05T04:42:12.478Z,20.63
2022-08-05T04:43:22.111Z,20.60
2022-08-05T04:44:13.233Z,20.60
2022-08-05T04:45:11.308Z,20.62
2022-08-05T04:46:10.403Z,20.62
2022-08-05T04:47:18.399Z,20.57
2022-08-05T04:49:18.167Z,20.53
2022-08-05T04:50:15.171Z,20.54
2022-08-05T04:51:14.981Z,20.55
2022-08-05T04:52:11.260Z,20.58
2022-08-05T04:53:11.841Z,20.57
2022-08-05T04:54:13.083Z,20.61
2022-08-05T04:55:39.829Z,20.60
2022-08-05T04:56:45.294Z,20.61
2022-08-05T04:57:11.201Z,20.61
2022-08-05T04:58:15.650Z,20.57
2022-08-05T04:59:36.791Z,20.57
2022-08-05T05:00:11.834Z,20.57
2022-08-05T05:01:11.126Z,20.58
2022-08-05T05:02:44.876Z,20.58
2022-08-05T05:03:10.929Z,20.58
2022-08-05T05:04:11.424Z,20.57
2022-08-05T05:05:32.443Z,20.57
2022-08-05T05:06:57.535Z,20.57
2022-08-05T05:07:15.817Z,20.57
2022-08-05T05:08:26.613Z,20.56
2022-08-05T05:09:13.288Z,20.55
2022-08-05T05:10:11.399Z,20.53
2022-08-05T05:11:11.352Z,20.53
2022-08-05T05:12:11.788Z,20.54
2022-08-05T05:13:11.266Z,20.55
2022-08-05T05:14:16.066Z,20.54
2022-08-05T05:15:17.442Z,20.54
2022-08-05T05:16:10.754Z,20.54
2022-08-05T05:17:12.972Z,20.53
2022-08-05T05:18:11.156Z,20.52
2022-08-05T05:19:27.269Z,20.48
2022-08-05T05:20:10.906Z,20.48
2022-08-05T05:21:10.889Z,20.5
2022-08-05T05:22:27.829Z,20.49
2022-08-05T05:23:19.858Z,20.49
2022-08-05T05:24:12.732Z,20.52
2022-08-05T05:25:20.683Z,20.51
2022-08-05T05:26:11.429Z,20.51
2022-08-05T05:27:11.050Z,20.49
2022-08-05T05:28:11.233Z,20.48
2022-08-05T05:29:18.388Z,20.48
2022-08-05T05:31:12.362Z,20.5
2022-08-05T05:32:15.875Z,20.51
2022-08-05T05:33:23.448Z,20.49
2022-08-05T05:34:10.846Z,20.49
2022-08-05T05:35:12.335Z,20.49
2022-08-05T05:36:10.549Z,20.50
2022-08-05T05:37:10.746Z,20.49
2022-08-05T05:38:22.169Z,20.48
2022-08-05T05:39:14.581Z,20.48
2022-08-05T05:40:11.217Z,20.49
2022-08-05T05:41:11.071Z,20.49
2022-08-05T05:42:10.189Z,20.48
2022-08-05T05:43:12.130Z,20.44
2022-08-05T05:44:43.026Z,20.45
2022-08-05T05:45:12.228Z,20.45
2022-08-05T05:48:06.113Z,20.43
2022-08-05T05:48:12.045Z,20.43
2022-08-05T05:49:26.417Z,20.44
2022-08-05T05:50:11.154Z,20.44
2022-08-05T05:51:19.407Z,20.48
2022-08-05T05:52:13.348Z,20.48
2022-08-05T05:53:25.881Z,0
2022-08-05T05:54:15.229Z,0
2022-08-05T05:55:17.372Z,0
2022-08-05T05:56:12.277Z,17
2022-08-05T05:57:23.258Z,20.5
2022-08-05T05:58:12.916Z,20.5
2022-08-05T05:59:11.481Z,20.5
2022-08-05T06:00:15.571Z,20.49
2022-08-05T06:01:17.503Z,20.44
2022-08-05T06:02:11.900Z,20.42
2022-08-05T06:04:06.976Z,20.41
2022-08-05T06:04:16.688Z,20.41
2022-08-05T06:05:20.681Z,20.42
2022-08-05T06:06:10.892Z,20.42
2022-08-05T06:07:13.990Z,20.45
2022-08-05T06:08:12.894Z,20.46
2022-08-05T06:09:26.700Z,20.47
2022-08-05T06:10:14.052Z,20.47
2022-08-05T06:11:19.693Z,20.49
2022-08-05T06:12:15.516Z,20.49
2022-08-05T06:13:11.364Z,20.5
2022-08-05T06:14:10.593Z,20.50
2022-08-05T06:15:23.524Z,20.50
2022-08-05T06:16:37.241Z,20.50
2022-08-05T06:17:53.481Z,20.51
2022-08-05T06:18:10.411Z,20.51
2022-08-05T06:19:11.472Z,20.52
2022-08-05T06:20:24.880Z,20.52
2022-08-05T06:21:22.114Z,20.53
2022-08-05T06:22:10.924Z,20.53
2022-08-05T06:23:25.047Z,20.53
2022-08-05T06:24:14.919Z,20.53
2022-08-05T06:26:20.871Z,20.51
2022-08-05T06:26:24.103Z,20.52
2022-08-05T06:28:20.700Z,20.52
2022-08-05T06:28:20.867Z,20.52
2022-08-05T06:29:46.346Z,20.53
2022-08-05T06:30:25.227Z,20.54
2022-08-05T06:31:21.770Z,20.55
2022-08-05T06:32:29.866Z,20.55
2022-08-05T06:33:19.094Z,20.55
2022-08-05T06:34:12.477Z,20.54
2022-08-05T06:36:07.066Z,20.57
2022-08-05T06:36:13.569Z,20.57
2022-08-05T06:37:10.168Z,20.57
2022-08-05T06:38:15.422Z,20.56
2022-08-05T06:39:10.711Z,20.56
2022-08-05T06:40:11.785Z,20.55
2022-08-05T06:41:11.672Z,20.57
2022-08-05T06:42:10.987Z,20.56
2022-08-05T06:44:01.020Z,20.57
2022-08-05T06:44:09.916Z,20.57
2022-08-05T06:45:20.887Z,17
2022-08-05T06:46:11.142Z,20.56
2022-08-05T06:48:35.995Z,20.58
2022-08-05T06:50:01.832Z,20.54
2022-08-05T06:50:11.464Z,20.54
2022-08-05T06:51:29.861Z,20.56
2022-08-05T06:52:40.963Z,20.57
2022-08-05T06:53:28.334Z,20.57
2022-08-05T06:54:18.176Z,20.57
2022-08-05T06:55:11.078Z,20.57
2022-08-05T06:56:29.777Z,20.55
2022-08-05T06:58:20.196Z,20.53
2022-08-05T06:58:36.456Z,20.54
2022-08-05T06:59:13.564Z,20.54
2022-08-05T07:00:14.284Z,20.54
2022-08-05T07:01:11.165Z,20.56
2022-08-05T07:02:11.457Z,20.56
2022-08-05T07:03:13.309Z,20.55
2022-08-05T07:04:13.793Z,20.54
2022-08-05T07:05:37.023Z,20.54
2022-08-05T07:07:11.547Z,20.55
2022-08-05T07:08:14.411Z,20.57
2022-08-05T07:09:10.738Z,20.59
2022-08-05T07:10:14.892Z,20.60
2022-08-05T07:11:22.353Z,20.61
2022-08-05T07:12:11.973Z,20.61
2022-08-05T07:13:13.413Z,20.61
2022-08-05T07:15:12.107Z,20.60
2022-08-05T07:16:25.677Z,20.60
2022-08-05T07:18:20.276Z,20.61
2022-08-05T07:18:27.060Z,20.61
2022-08-05T07:19:11.025Z,20.61
2022-08-05T07:20:39.103Z,20.63
2022-08-05T07:21:11.589Z,20.63
2022-08-05T07:22:11.438Z,20.63
2022-08-05T07:23:13.012Z,20.61
2022-08-05T07:24:14.881Z,20.60
2022-08-05T07:25:59.170Z,20.63
2022-08-05T07:26:10.074Z,20.63
2022-08-05T07:27:12.485Z,20.65
2022-08-05T07:28:17.364Z,20.63
2022-08-05T07:29:10.201Z,20.64
2022-08-05T07:30:32.919Z,20.66
2022-08-05T07:31:10.589Z,20.66
2022-08-05T07:32:10.402Z,20.67
2022-08-05T07:33:16.467Z,20.66
2022-08-05T07:34:13.881Z,20.67
2022-08-05T07:36:21.226Z,20.70
2022-08-05T07:36:24.796Z,20.70
2022-08-05T07:37:12.553Z,20.70
2022-08-05T07:38:32.882Z,20.70
2022-08-05T07:40:04.454Z,20.72
2022-08-05T07:40:36.378Z,20.77
2022-08-05T07:42:33.372Z,20.79
2022-08-05T07:43:23.729Z,20.78
2022-08-05T07:45:14.618Z,20.77
2022-08-05T07:46:28.481Z,20.79
2022-08-05T07:47:14.834Z,20.79
2022-08-05T07:48:12.326Z,20.78
2022-08-05T07:49:11.574Z,20.77
2022-08-05T07:50:11.106Z,20.77
2022-08-05T07:51:37.018Z,20.79
2022-08-05T07:52:13.064Z,20.79
2022-08-05T07:53:10.727Z,20.79
2022-08-05T07:54:13.221Z,20.80
2022-08-05T07:57:00.125Z,20.76
2022-08-05T07:57:17.575Z,20.75
2022-08-05T07:57:57.412Z,20.76
2022-08-05T07:59:12.456Z,20.73
2022-08-05T08:00:15.782Z,20.72
2022-08-05T08:01:16.288Z,20.71
2022-08-05T08:03:19.194Z,20.75
2022-08-05T08:04:11.520Z,20.77
2022-08-05T08:05:11.401Z,20.73
2022-08-05T08:06:13.478Z,20.73
2022-08-05T08:07:11.349Z,20.74
2022-08-05T08:08:16.073Z,20.73
2022-08-05T08:09:10.956Z,20.73
2022-08-05T08:10:11.831Z,20.71
2022-08-05T08:11:15.936Z,20.70
2022-08-05T08:12:33.294Z,20.71
2022-08-05T08:13:14.982Z,20.71
2022-08-05T08:14:10.755Z,20.70
2022-08-05T08:15:17.565Z,20.72
2022-08-05T08:16:53.771Z,20.71
2022-08-05T08:17:16.091Z,20.71
2022-08-05T08:18:20.901Z,20.73
2022-08-05T08:19:10.273Z,20.72
2022-08-05T08:21:02.069Z,20.69
2022-08-05T08:21:19.325Z,20.69
2022-08-05T08:22:15.913Z,20.69
2022-08-05T08:24:09.515Z,20.67
2022-08-05T08:24:17.459Z,20.67
2022-08-05T08:25:26.386Z,20.68
2022-08-05T08:26:11.166Z,20.68
2022-08-05T08:27:11.598Z,20.68
2022-08-05T08:30:18.958Z,20.69
2022-08-05T08:30:47.583Z,20.68
2022-08-05T08:31:14.898Z,20.68
2022-08-05T08:32:14.382Z,20.66
2022-08-05T08:33:13.714Z,20.66
2022-08-05T08:34:11.401Z,20.65
2022-08-05T08:35:16.975Z,20.66
2022-08-05T08:36:48.827Z,20.67
2022-08-05T08:37:11.984Z,20.67
2022-08-05T08:38:11.719Z,20.67
2022-08-05T08:39:19.247Z,20.69
2022-08-05T08:40:11.323Z,20.69
2022-08-05T08:41:10.474Z,20.69
2022-08-05T08:42:54.271Z,20.70
2022-08-05T08:45:29.493Z,20.71
2022-08-05T08:45:29.647Z,20.71
2022-08-05T08:45:29.786Z,20.71
2022-08-05T08:48:23.170Z,20.71
2022-08-05T08:50:05.991Z,20.70
2022-08-05T08:51:03.846Z,20.71
2022-08-05T08:51:03.870Z,20.71
2022-08-05T08:52:13.835Z,20.70
2022-08-05T08:52:28.497Z,20.73
2022-08-05T08:53:15.380Z,20.73
2022-08-05T08:54:10.690Z,20.73
2022-08-05T08:55:19.307Z,20.75
2022-08-05T08:56:11.197Z,20.74
2022-08-05T08:57:17.724Z,20.71
2022-08-05T08:58:13.157Z,20.69
2022-08-05T08:59:22.980Z,20.73
2022-08-05T09:00:13.319Z,20.73
2022-08-05T09:01:16.369Z,20.70
2022-08-05T09:02:12.201Z,20.68
2022-08-05T09:03:11.142Z,20.66
2022-08-05T09:04:14.111Z,20.67
2022-08-05T09:05:38.901Z,20.62
2022-08-05T09:06:21.022Z,20.62
2022-08-05T09:07:28.943Z,20.58
2022-08-05T09:08:13.337Z,20.58
2022-08-05T09:09:10.696Z,20.54
2022-08-05T09:10:11.293Z,20.53
2022-08-05T09:11:13.620Z,20.52
2022-08-05T09:12:27.211Z,20.49
2022-08-05T09:13:11.442Z,20.49
2022-08-05T09:15:05.741Z,20.50
2022-08-05T09:15:10.904Z,20.50
2022-08-05T09:16:17.863Z,20.48
2022-08-05T09:17:16.098Z,20.47
2022-08-05T09:18:13.414Z,20.44
2022-08-05T09:19:10.539Z,20.45
2022-08-05T09:20:12.197Z,20.44
2022-08-05T09:22:22.972Z,20.51
2022-08-05T09:22:31.997Z,20.49
2022-08-05T09:23:19.191Z,20.49
2022-08-05T09:24:10.472Z,20.44
2022-08-05T09:26:01.098Z,20.49
2022-08-05T09:26:20.612Z,20.49
2022-08-05T09:27:12.994Z,20.50
2022-08-05T09:28:11.375Z,20.48
2022-08-05T09:29:18.773Z,20.46
2022-08-05T09:32:46.480Z,20.50
2022-08-05T09:32:50.112Z,20.50
2022-08-05T09:33:11.295Z,20.50
2022-08-05T09:34:13.276Z,20.50
2022-08-05T09:35:11.618Z,20.48
2022-08-05T09:37:18.795Z,20.48
2022-08-05T09:39:22.568Z,20.47
2022-08-05T09:40:11.432Z,20.47
2022-08-05T09:41:11.388Z,20.48
2022-08-05T09:42:17.339Z,20.48
2022-08-05T09:43:11.945Z,20.46
2022-08-05T09:44:14.553Z,20.44
2022-08-05T09:46:12.657Z,20.44
2022-08-05T09:46:15.535Z,20.44
2022-08-05T09:47:16.272Z,20.42
2022-08-05T09:48:11.654Z,20.40
2022-08-05T09:49:23.085Z,20.39
2022-08-05T09:50:11.860Z,20.39
2022-08-05T09:51:19.302Z,20.36
2022-08-05T09:52:14.876Z,20.36
2022-08-05T09:53:26.037Z,20.32
2022-08-05T09:54:10.506Z,20.29
2022-08-05T09:56:13.133Z,20.27
2022-08-05T09:56:16.656Z,20.27
2022-08-05T09:57:27.074Z,20.24
2022-08-05T09:58:10.902Z,20.24
2022-08-05T09:59:11.302Z,20.20
2022-08-05T10:00:11.964Z,20.22
2022-08-05T10:01:31.596Z,20.19
2022-08-05T10:02:11.462Z,20.19
2022-08-05T10:03:11.544Z,20.19
2022-08-05T10:04:16.175Z,20.18
2022-08-05T10:05:11.586Z,20.17
2022-08-05T10:06:19.247Z,20.15
2022-08-05T10:08:10.380Z,20.07
2022-08-05T10:08:55.783Z,20.03
2022-08-05T10:09:27.278Z,20.03
2022-08-05T10:11:13.928Z,19.99
2022-08-05T10:12:34.240Z,20.00
2022-08-05T10:13:14.641Z,20.00
2022-08-05T10:14:14.630Z,19.98
2022-08-05T10:15:12.289Z,20
2022-08-05T10:16:11.859Z,19.97
2022-08-05T10:17:43.428Z,19.97
2022-08-05T10:18:10.740Z,19.97
2022-08-05T10:19:12.918Z,19.98
2022-08-05T10:20:14.202Z,19.96
2022-08-05T10:21:16.295Z,19.96
2022-08-05T10:22:15.631Z,19.95
2022-08-05T10:23:59.512Z,19.91
2022-08-05T10:24:15.145Z,19.91
2022-08-05T10:25:14.401Z,19.91
2022-08-05T10:26:17.412Z,19.89
2022-08-05T10:27:11.482Z,19.88
2022-08-05T10:29:11.089Z,19.84
2022-08-05T10:33:02.590Z,19.80
2022-08-05T10:33:09.043Z,19.80
2022-08-05T10:33:09.342Z,19.80
2022-08-05T10:33:19.275Z,19.80
2022-08-05T10:34:12.715Z,19.78
2022-08-05T10:35:13.370Z,19.75
2022-08-05T10:36:12.470Z,19.73
2022-08-05T10:37:12.904Z,19.73
2022-08-05T10:38:15.234Z,19.72
2022-08-05T10:39:25.154Z,19.72
2022-08-05T10:41:23.405Z,19.69
2022-08-05T10:42:15.826Z,19.71
2022-08-05T10:43:16.536Z,19.68
2022-08-05T10:44:13.984Z,19.69
2022-08-05T10:45:40.030Z,19.62
2022-08-05T10:46:14.236Z,19.62
2022-08-05T10:47:31.401Z,19.57
2022-08-05T10:48:52.531Z,19.59
2022-08-05T10:49:16.963Z,19.59
2022-08-05T10:50:40.460Z,19.61
2022-08-05T10:51:28.443Z,19.58
2022-08-05T10:52:14.290Z,19.58
2022-08-05T10:53:21.093Z,19.61
2022-08-05T10:54:37.739Z,19.61
2022-08-05T10:55:16.091Z,19.61
2022-08-05T10:56:29.913Z,19.59
2022-08-05T10:57:14.656Z,19.59
2022-08-05T10:58:15.663Z,19.58
2022-08-05T11:00:13.265Z,19.56
2022-08-05T11:01:15.175Z,19.56
2022-08-05T11:02:34.894Z,19.58
2022-08-05T11:03:29.659Z,19.54
2022-08-05T11:04:11.437Z,19.54
2022-08-05T11:05:13.549Z,19.56
2022-08-05T11:06:18.574Z,19.56
2022-08-05T11:07:11.095Z,19.55
2022-08-05T11:08:40.492Z,19.57
2022-08-05T11:09:16.491Z,19.57
2022-08-05T11:10:13.847Z,19.56
2022-08-05T11:11:20.359Z,19.57
2022-08-05T11:12:13.035Z,19.57
2022-08-05T11:13:11.092Z,19.57
2022-08-05T11:14:12.077Z,19.56
2022-08-05T11:15:43.945Z,19.60
2022-08-05T11:16:13.452Z,19.60
2022-08-05T11:18:06.484Z,19.59
2022-08-05T11:18:15.124Z,19.59
2022-08-05T11:21:15.485Z,19.59
2022-08-05T11:22:13.060Z,19.56
2022-08-05T11:23:13.892Z,19.55
2022-08-05T11:24:34.239Z,19.57
2022-08-05T11:26:10.164Z,19.58
2022-08-05T11:26:12.932Z,19.58
2022-08-05T11:27:51.890Z,19.58
2022-08-05T11:28:10.553Z,19.58
2022-08-05T11:29:17.787Z,19.58
2022-08-05T11:30:13.950Z,19.57
2022-08-05T11:31:19.560Z,19.56
2022-08-05T11:32:11.162Z,19.57
2022-08-05T11:33:24.503Z,19.57
2022-08-05T11:34:14.815Z,19.57
2022-08-05T11:35:11.173Z,19.57
2022-08-05T11:36:12.750Z,19.59
2022-08-05T11:38:45.664Z,19.58
2022-08-05T11:38:45.770Z,19.58
2022-08-05T11:39:11.011Z,19.58
2022-08-05T11:40:10.846Z,19.60
2022-08-05T11:42:04.566Z,19.63
2022-08-05T11:42:10.948Z,19.63
2022-08-05T11:43:11.011Z,19.63
2022-08-05T11:44:11.880Z,19.62
2022-08-05T11:46:27.437Z,19.59
2022-08-05T11:46:32.759Z,19.59
2022-08-05T11:47:22.098Z,19.62
2022-08-05T11:48:15.005Z,19.63
2022-08-05T11:49:13.495Z,19.65
2022-08-05T11:50:14.455Z,19.68
2022-08-05T11:51:14.153Z,19.70
2022-08-05T11:52:15.353Z,19.71
2022-08-05T11:53:13.320Z,19.70
2022-08-05T11:54:11.526Z,19.72
2022-08-05T11:55:13.991Z,19.72
2022-08-05T11:56:14.967Z,19.72
2022-08-05T11:57:30.524Z,19.76
2022-08-05T11:58:17.402Z,19.76
2022-08-05T11:59:17.297Z,19.80
2022-08-05T12:00:12.118Z,19.85
2022-08-05T12:01:13.806Z,19.86
2022-08-05T12:02:31.265Z,19.81
2022-08-05T12:03:11.388Z,19.81
2022-08-05T12:04:10.959Z,19.81
2022-08-05T12:05:24.853Z,19.83
2022-08-05T12:06:14.099Z,19.83
2022-08-05T12:07:12.620Z,19.85
2022-08-05T12:08:18.194Z,19.87
2022-08-05T12:09:10.614Z,19.90
2022-08-05T12:10:14.707Z,19.94
2022-08-05T12:11:10.976Z,19.92
2022-08-05T12:12:10.468Z,19.89
2022-08-05T12:13:47.957Z,19.93
2022-08-05T12:14:10.616Z,19.93
2022-08-05T12:15:15.076Z,19.95
2022-08-05T12:16:19.036Z,19.99
2022-08-05T12:18:12.162Z,20.02
2022-08-05T12:18:14.850Z,20.02
2022-08-05T12:20:26.548Z,20.04
2022-08-05T12:20:33.527Z,20.08
2022-08-05T12:21:10.868Z,20.08
2022-08-05T12:22:12.908Z,20.09
2022-08-05T12:23:10.405Z,20.11
2022-08-05T12:24:11.003Z,20.13
2022-08-05T12:25:14.329Z,20.14
2022-08-05T12:26:10.253Z,20.22
2022-08-05T12:27:32.887Z,20.30
2022-08-05T12:28:10.260Z,20.30
2022-08-05T12:29:16.100Z,20.34
2022-08-05T12:30:10.937Z,20.32
2022-08-05T12:31:10.593Z,20.34
2022-08-05T12:32:12.800Z,20.29
2022-08-05T12:33:40.029Z,20.32
2022-08-05T12:34:20.622Z,20.32
2022-08-05T12:35:10.942Z,20.34
2022-08-05T12:36:12.350Z,20.33
2022-08-05T12:37:10.539Z,20.32
2022-08-05T12:38:13.328Z,20.32
2022-08-05T12:39:10.650Z,20.34
2022-08-05T12:40:14.467Z,20.38
2022-08-05T12:41:17.188Z,20.44
2022-08-05T12:42:14.778Z,20.46
2022-08-05T12:43:12.470Z,20.48
2022-08-05T12:44:32.676Z,20.48
2022-08-05T12:45:13.104Z,20.53
2022-08-05T12:46:15.674Z,20.57
2022-08-05T12:47:17.096Z,20.62
2022-08-05T12:48:32.939Z,17
2022-08-05T12:49:17.299Z,17
2022-08-05T12:50:13.880Z,0
2022-08-05T12:52:23.809Z,0
2022-08-05T12:52:31.242Z,0
2022-08-05T12:53:11.052Z,0
2022-08-05T12:55:13.516Z,0
2022-08-05T12:56:38.833Z,0
2022-08-05T12:57:16.055Z,0
2022-08-05T12:59:00.968Z,0
2022-08-05T12:59:23.847Z,0
2022-08-05T13:02:11.257Z,0
2022-08-05T13:02:11.445Z,0
2022-08-05T13:02:14.127Z,0
2022-08-05T13:03:15.611Z,0
2022-08-05T13:04:16.639Z,0
2022-08-05T13:05:14.378Z,0
2022-08-05T13:06:16.156Z,0
2022-08-05T13:07:47.522Z,16
2022-08-05T13:08:12.079Z,16
2022-08-05T13:09:12.661Z,20.93
2022-08-05T13:10:12.901Z,20.92
2022-08-05T13:11:11.009Z,20.92
2022-08-05T13:12:16.535Z,20.97
2022-08-05T13:13:12.171Z,20.93
2022-08-05T13:14:11.213Z,20.87
2022-08-05T13:15:24.340Z,21.00
2022-08-05T13:16:15.456Z,21.00
2022-08-05T13:17:10.939Z,20.98
2022-08-05T13:18:11.115Z,21.03
2022-08-05T13:19:11.816Z,21.04
2022-08-05T13:20:12.267Z,21.09
2022-08-05T13:21:10.713Z,21.15
2022-08-05T13:22:12.085Z,21.23
2022-08-05T13:23:10.992Z,21.27
2022-08-05T13:24:12.523Z,21.34
2022-08-05T13:25:52.206Z,21.38
2022-08-05T13:26:10.589Z,21.38
2022-08-05T13:27:35.330Z,21.51
2022-08-05T13:28:14.267Z,21.51
2022-08-05T13:29:11.255Z,21.56
2022-08-05T13:30:39.390Z,21.58
2022-08-05T13:31:18.053Z,21.58
2022-08-05T13:32:11.810Z,21.54
2022-08-05T13:33:14.177Z,21.45
2022-08-05T13:34:29.260Z,10
2022-08-05T13:35:10.786Z,10
2022-08-05T13:36:12.984Z,0
2022-08-05T13:37:10.980Z,3
2022-08-05T13:38:15.724Z,14
2022-08-05T13:40:35.615Z,21.54